sensor_id;sensor_type;location;lat;lon;timestamp;P1;durP1;ratioP1;P2;durP2;ratioP2
28958;SDS011;16066;0.000;0.000;2023-05-13T05:34:21;5.93;;;5.27;;
28958;SDS011;16066;0.000;0.000;2023-05-13T05:36:46;6.60;;;5.07;;
28958;SDS011;16066;0.000;0.000;2023-05-13T05:39:12;7.53;;;5.50;;
28958;SDS011;16066;0.000;0.000;2023-05-13T05:41:37;6.10;;;5.50;;
28958;SDS011;16066;0.000;0.000;2023-05-13T05:44:03;6.23;;;4.70;;
28958;SDS011;16066;0.000;0.000;2023-05-13T05:46:28;6.77;;;5.23;;
28958;SDS011;16066;0.000;0.000;2023-05-13T05:48:54;8.90;;;5.73;;
28958;SDS011;16066;0.000;0.000;2023-05-13T05:51:19;14.90;;;5.50;;
28958;SDS011;16066;0.000;0.000;2023-05-13T05:53:45;11.97;;;5.43;;
28958;SDS011;16066;0.000;0.000;2023-05-13T05:56:10;8.00;;;5.33;;
28958;SDS011;16066;0.000;0.000;2023-05-13T05:58:36;7.43;;;5.50;;
28958;SDS011;16066;0.000;0.000;2023-05-13T06:01:01;6.73;;;5.57;;
28958;SDS011;16066;0.000;0.000;2023-05-13T06:03:27;6.40;;;5.57;;
28958;SDS011;16066;0.000;0.000;2023-05-13T06:05:53;4.93;;;4.43;;
28958;SDS011;16066;0.000;0.000;2023-05-13T06:08:18;12.77;;;8.57;;
28958;SDS011;16066;0.000;0.000;2023-05-13T06:10:44;5.23;;;4.73;;
28958;SDS011;16066;0.000;0.000;2023-05-13T06:13:10;7.23;;;5.23;;
28958;SDS011;16066;0.000;0.000;2023-05-13T06:15:36;6.93;;;5.27;;
28958;SDS011;16066;0.000;0.000;2023-05-13T06:18:02;11.80;;;5.50;;
28958;SDS011;16066;0.000;0.000;2023-05-13T06:20:29;8.80;;;6.70;;
28958;SDS011;16066;0.000;0.000;2023-05-13T06:22:58;7.87;;;6.27;;
28958;SDS011;16066;0.000;0.000;2023-05-13T06:25:23;7.00;;;5.83;;
28958;SDS011;16066;0.000;0.000;2023-05-13T06:27:49;8.73;;;5.50;;
28958;SDS011;16066;0.000;0.000;2023-05-13T06:30:14;10.37;;;6.73;;
28958;SDS011;16066;0.000;0.000;2023-05-13T06:32:40;10.93;;;5.67;;
28958;SDS011;16066;0.000;0.000;2023-05-13T06:35:06;10.97;;;7.10;;
28958;SDS011;16066;0.000;0.000;2023-05-13T06:37:31;11.10;;;6.93;;
28958;SDS011;16066;0.000;0.000;2023-05-13T06:39:57;8.03;;;5.77;;
28958;SDS011;16066;0.000;0.000;2023-05-13T06:42:23;8.70;;;5.90;;
28958;SDS011;16066;0.000;0.000;2023-05-13T06:44:49;10.43;;;7.33;;
28958;SDS011;16066;0.000;0.000;2023-05-13T06:47:15;13.87;;;6.03;;
28958;SDS011;16066;0.000;0.000;2023-05-13T06:49:40;8.37;;;5.87;;
28958;SDS011;16066;0.000;0.000;2023-05-13T06:52:07;9.33;;;5.93;;
28958;SDS011;16066;0.000;0.000;2023-05-13T06:54:33;7.30;;;5.67;;
28958;SDS011;16066;0.000;0.000;2023-05-13T06:56:58;9.23;;;5.53;;
28958;SDS011;16066;0.000;0.000;2023-05-13T06:59:24;13.10;;;6.93;;
28958;SDS011;16066;0.000;0.000;2023-05-13T07:01:50;7.10;;;5.40;;
28958;SDS011;16066;0.000;0.000;2023-05-13T07:04:15;7.10;;;5.57;;
28958;SDS011;16066;0.000;0.000;2023-05-13T07:06:41;9.40;;;5.90;;
28958;SDS011;16066;0.000;0.000;2023-05-13T07:09:06;12.63;;;6.33;;
28958;SDS011;16066;0.000;0.000;2023-05-13T07:11:34;9.07;;;5.30;;
28958;SDS011;16066;0.000;0.000;2023-05-13T07:14:00;7.10;;;5.40;;
28958;SDS011;16066;0.000;0.000;2023-05-13T07:16:25;7.67;;;5.10;;
28958;SDS011;16066;0.000;0.000;2023-05-13T07:18:51;7.13;;;5.27;;
28958;SDS011;16066;0.000;0.000;2023-05-13T07:21:18;8.20;;;4.03;;
28958;SDS011;16066;0.000;0.000;2023-05-13T07:23:44;5.50;;;4.23;;
28958;SDS011;16066;0.000;0.000;2023-05-13T07:26:09;6.30;;;5.47;;
28958;SDS011;16066;0.000;0.000;2023-05-13T07:28:35;9.23;;;5.50;;
28958;SDS011;16066;0.000;0.000;2023-05-13T07:31:00;14.53;;;6.30;;
28958;SDS011;16066;0.000;0.000;2023-05-13T07:33:28;7.70;;;4.57;;
28958;SDS011;16066;0.000;0.000;2023-05-13T07:35:53;9.90;;;5.40;;
28958;SDS011;16066;0.000;0.000;2023-05-13T07:38:19;6.20;;;4.57;;
28958;SDS011;16066;0.000;0.000;2023-05-13T07:40:45;9.70;;;5.10;;
28958;SDS011;16066;0.000;0.000;2023-05-13T07:43:10;8.00;;;4.63;;
28958;SDS011;16066;0.000;0.000;2023-05-13T07:45:37;10.60;;;5.10;;
28958;SDS011;16066;0.000;0.000;2023-05-13T07:48:06;7.20;;;5.03;;
28958;SDS011;16066;0.000;0.000;2023-05-13T07:50:31;6.73;;;4.23;;
28958;SDS011;16066;0.000;0.000;2023-05-13T07:52:57;5.93;;;4.43;;
28958;SDS011;16066;0.000;0.000;2023-05-13T07:55:22;6.50;;;4.77;;
28958;SDS011;16066;0.000;0.000;2023-05-13T07:57:48;6.93;;;4.10;;
28958;SDS011;16066;0.000;0.000;2023-05-13T08:00:13;6.97;;;4.20;;
28958;SDS011;16066;0.000;0.000;2023-05-13T08:02:40;7.87;;;4.10;;
28958;SDS011;16066;0.000;0.000;2023-05-13T08:05:07;9.63;;;4.27;;
28958;SDS011;16066;0.000;0.000;2023-05-13T08:07:33;10.40;;;4.80;;
28958;SDS011;16066;0.000;0.000;2023-05-13T08:09:59;7.17;;;3.90;;
28958;SDS011;16066;0.000;0.000;2023-05-13T08:12:24;5.47;;;3.90;;
28958;SDS011;16066;0.000;0.000;2023-05-13T08:14:50;8.33;;;3.73;;
28958;SDS011;16066;0.000;0.000;2023-05-13T08:17:15;4.90;;;4.40;;
28958;SDS011;16066;0.000;0.000;2023-05-13T08:19:43;4.60;;;3.70;;
28958;SDS011;16066;0.000;0.000;2023-05-13T08:22:09;6.63;;;3.63;;
28958;SDS011;16066;0.000;0.000;2023-05-13T08:24:34;7.40;;;4.20;;
28958;SDS011;16066;0.000;0.000;2023-05-13T08:27:00;9.00;;;3.83;;
28958;SDS011;16066;0.000;0.000;2023-05-13T08:29:26;4.63;;;3.70;;
28958;SDS011;16066;0.000;0.000;2023-05-13T08:31:52;7.50;;;3.53;;
28958;SDS011;16066;0.000;0.000;2023-05-13T08:34:18;5.57;;;3.70;;
28958;SDS011;16066;0.000;0.000;2023-05-13T08:36:43;4.80;;;3.03;;
28958;SDS011;16066;0.000;0.000;2023-05-13T08:39:09;6.03;;;3.53;;
28958;SDS011;16066;0.000;0.000;2023-05-13T08:41:34;3.90;;;3.50;;
28958;SDS011;16066;0.000;0.000;2023-05-13T08:44:03;9.97;;;3.43;;
28958;SDS011;16066;0.000;0.000;2023-05-13T08:46:31;4.33;;;3.60;;
28958;SDS011;16066;0.000;0.000;2023-05-13T08:49:00;5.67;;;3.60;;
28958;SDS011;16066;0.000;0.000;2023-05-13T08:51:26;4.13;;;3.10;;
28958;SDS011;16066;0.000;0.000;2023-05-13T08:53:51;7.30;;;3.40;;
28958;SDS011;16066;0.000;0.000;2023-05-13T08:56:18;9.20;;;3.70;;
28958;SDS011;16066;0.000;0.000;2023-05-13T08:58:46;6.17;;;3.87;;
28958;SDS011;16066;0.000;0.000;2023-05-13T09:01:11;8.20;;;4.30;;
28958;SDS011;16066;0.000;0.000;2023-05-13T09:03:40;4.83;;;3.60;;
28958;SDS011;16066;0.000;0.000;2023-05-13T09:06:17;5.03;;;3.10;;
28958;SDS011;16066;0.000;0.000;2023-05-13T09:08:42;5.80;;;3.70;;
28958;SDS011;16066;0.000;0.000;2023-05-13T09:11:08;6.67;;;3.50;;
28958;SDS011;16066;0.000;0.000;2023-05-13T09:13:34;4.33;;;3.93;;
28958;SDS011;16066;0.000;0.000;2023-05-13T09:16:00;5.30;;;3.50;;
28958;SDS011;16066;0.000;0.000;2023-05-13T09:18:29;6.80;;;3.60;;
28958;SDS011;16066;0.000;0.000;2023-05-13T09:21:06;3.90;;;3.47;;
28958;SDS011;16066;0.000;0.000;2023-05-13T09:23:54;8.10;;;4.10;;
28958;SDS011;16066;0.000;0.000;2023-05-13T09:26:31;7.43;;;3.53;;
28958;SDS011;16066;0.000;0.000;2023-05-13T09:31:45;3.80;;;3.40;;
28958;SDS011;16066;0.000;0.000;2023-05-13T09:34:25;4.50;;;3.30;;
28958;SDS011;16066;0.000;0.000;2023-05-13T09:36:56;7.57;;;3.33;;
28958;SDS011;16066;0.000;0.000;2023-05-13T09:39:33;4.93;;;3.47;;
28958;SDS011;16066;0.000;0.000;2023-05-13T09:42:03;4.67;;;4.10;;
28958;SDS011;16066;0.000;0.000;2023-05-13T09:44:29;7.70;;;3.50;;
28958;SDS011;16066;0.000;0.000;2023-05-13T09:46:56;4.07;;;3.17;;
28958;SDS011;16066;0.000;0.000;2023-05-13T09:49:22;6.63;;;3.90;;
28958;SDS011;16066;0.000;0.000;2023-05-13T09:51:50;3.90;;;3.33;;
28958;SDS011;16066;0.000;0.000;2023-05-13T09:54:15;4.53;;;3.20;;
28958;SDS011;16066;0.000;0.000;2023-05-13T09:56:41;6.10;;;3.70;;
28958;SDS011;16066;0.000;0.000;2023-05-13T09:59:06;6.10;;;3.90;;
28958;SDS011;16066;0.000;0.000;2023-05-13T10:01:33;6.03;;;3.90;;
28958;SDS011;16066;0.000;0.000;2023-05-13T10:03:59;4.27;;;3.67;;
28958;SDS011;16066;0.000;0.000;2023-05-13T10:06:26;7.83;;;3.60;;
28958;SDS011;16066;0.000;0.000;2023-05-13T10:08:54;6.43;;;3.40;;
28958;SDS011;16066;0.000;0.000;2023-05-13T10:11:22;5.40;;;4.00;;
28958;SDS011;16066;0.000;0.000;2023-05-13T10:13:54;7.30;;;3.90;;
28958;SDS011;16066;0.000;0.000;2023-05-13T10:16:23;8.47;;;3.87;;
28958;SDS011;16066;0.000;0.000;2023-05-13T10:18:49;3.90;;;3.50;;
28958;SDS011;16066;0.000;0.000;2023-05-13T10:21:16;5.83;;;3.80;;
28958;SDS011;16066;0.000;0.000;2023-05-13T10:23:43;5.07;;;3.83;;
28958;SDS011;16066;0.000;0.000;2023-05-13T10:26:11;10.40;;;3.87;;
28958;SDS011;16066;0.000;0.000;2023-05-13T10:28:37;5.10;;;3.40;;
28958;SDS011;16066;0.000;0.000;2023-05-13T10:31:03;6.13;;;3.63;;
28958;SDS011;16066;0.000;0.000;2023-05-13T10:33:29;8.47;;;3.90;;
28958;SDS011;16066;0.000;0.000;2023-05-13T10:44:35;6.07;;;3.20;;
28958;SDS011;16066;0.000;0.000;2023-05-13T10:47:01;5.97;;;3.93;;
28958;SDS011;16066;0.000;0.000;2023-05-13T10:49:33;6.33;;;4.00;;
28958;SDS011;16066;0.000;0.000;2023-05-13T10:52:02;6.13;;;3.10;;
28958;SDS011;16066;0.000;0.000;2023-05-13T10:54:38;4.03;;;3.63;;
28958;SDS011;16066;0.000;0.000;2023-05-13T10:57:06;9.17;;;3.60;;
28958;SDS011;16066;0.000;0.000;2023-05-13T10:59:32;10.10;;;3.30;;
28958;SDS011;16066;0.000;0.000;2023-05-13T11:02:00;4.43;;;3.40;;
28958;SDS011;16066;0.000;0.000;2023-05-13T11:04:27;10.30;;;3.50;;
28958;SDS011;16066;0.000;0.000;2023-05-13T11:06:53;7.53;;;3.87;;
28958;SDS011;16066;0.000;0.000;2023-05-13T11:11:47;3.90;;;3.37;;
28958;SDS011;16066;0.000;0.000;2023-05-13T11:14:20;9.33;;;3.27;;
28958;SDS011;16066;0.000;0.000;2023-05-13T11:19:35;6.60;;;3.43;;
28958;SDS011;16066;0.000;0.000;2023-05-13T11:22:08;4.17;;;3.50;;
28958;SDS011;16066;0.000;0.000;2023-05-13T11:24:38;4.03;;;3.40;;
28958;SDS011;16066;0.000;0.000;2023-05-13T11:29:46;6.10;;;3.70;;
28958;SDS011;16066;0.000;0.000;2023-05-13T11:35:26;9.30;;;3.80;;
28958;SDS011;16066;0.000;0.000;2023-05-13T11:37:54;7.43;;;3.27;;
28958;SDS011;16066;0.000;0.000;2023-05-13T11:40:24;5.70;;;3.60;;
28958;SDS011;16066;0.000;0.000;2023-05-13T11:42:51;6.50;;;3.90;;
28958;SDS011;16066;0.000;0.000;2023-05-13T11:45:18;6.27;;;3.50;;
28958;SDS011;16066;0.000;0.000;2023-05-13T11:47:45;7.10;;;4.30;;
28958;SDS011;16066;0.000;0.000;2023-05-13T11:50:21;9.70;;;3.70;;
28958;SDS011;16066;0.000;0.000;2023-05-13T11:52:49;5.70;;;3.50;;
28958;SDS011;16066;0.000;0.000;2023-05-13T11:55:29;5.70;;;3.90;;
28958;SDS011;16066;0.000;0.000;2023-05-13T11:58:01;9.23;;;4.37;;
28958;SDS011;16066;0.000;0.000;2023-05-13T12:00:31;4.83;;;4.33;;
28958;SDS011;16066;0.000;0.000;2023-05-13T12:02:58;6.17;;;4.63;;
28958;SDS011;16066;0.000;0.000;2023-05-13T12:05:25;12.00;;;4.10;;
28958;SDS011;16066;0.000;0.000;2023-05-13T12:07:51;6.70;;;3.50;;
28958;SDS011;16066;0.000;0.000;2023-05-13T12:10:21;6.13;;;3.63;;
28958;SDS011;16066;0.000;0.000;2023-05-13T12:12:48;7.13;;;4.40;;
28958;SDS011;16066;0.000;0.000;2023-05-13T12:15:15;4.37;;;3.67;;
28958;SDS011;16066;0.000;0.000;2023-05-13T12:17:41;4.00;;;3.60;;
28958;SDS011;16066;0.000;0.000;2023-05-13T12:22:35;4.90;;;3.50;;
28958;SDS011;16066;0.000;0.000;2023-05-13T12:28:10;4.23;;;3.23;;
28958;SDS011;16066;0.000;0.000;2023-05-13T12:30:52;3.63;;;3.20;;
28958;SDS011;16066;0.000;0.000;2023-05-13T12:33:21;6.40;;;3.73;;
28958;SDS011;16066;0.000;0.000;2023-05-13T12:39:01;7.57;;;3.60;;
28958;SDS011;16066;0.000;0.000;2023-05-13T12:41:29;6.07;;;3.50;;
28958;SDS011;16066;0.000;0.000;2023-05-13T12:43:59;6.27;;;3.10;;
28958;SDS011;16066;0.000;0.000;2023-05-13T12:46:25;6.87;;;2.93;;
28958;SDS011;16066;0.000;0.000;2023-05-13T12:48:55;9.40;;;3.37;;
28958;SDS011;16066;0.000;0.000;2023-05-13T12:51:25;6.60;;;3.17;;
28958;SDS011;16066;0.000;0.000;2023-05-13T12:53:51;8.93;;;3.27;;
28958;SDS011;16066;0.000;0.000;2023-05-13T12:56:18;5.93;;;3.00;;
28958;SDS011;16066;0.000;0.000;2023-05-13T12:58:48;7.53;;;3.27;;
28958;SDS011;16066;0.000;0.000;2023-05-13T13:01:15;5.80;;;2.90;;
28958;SDS011;16066;0.000;0.000;2023-05-13T13:03:41;4.53;;;2.73;;
28958;SDS011;16066;0.000;0.000;2023-05-13T13:06:07;3.50;;;3.00;;
28958;SDS011;16066;0.000;0.000;2023-05-13T13:08:34;6.73;;;3.20;;
28958;SDS011;16066;0.000;0.000;2023-05-13T13:11:00;7.93;;;3.30;;
28958;SDS011;16066;0.000;0.000;2023-05-13T13:13:26;7.70;;;3.27;;
28958;SDS011;16066;0.000;0.000;2023-05-13T13:15:52;3.70;;;3.10;;
28958;SDS011;16066;0.000;0.000;2023-05-13T13:18:17;5.57;;;3.07;;
28958;SDS011;16066;0.000;0.000;2023-05-13T13:20:43;5.10;;;2.90;;
28958;SDS011;16066;0.000;0.000;2023-05-13T13:23:08;4.53;;;3.10;;
28958;SDS011;16066;0.000;0.000;2023-05-13T13:25:34;3.23;;;2.90;;
28958;SDS011;16066;0.000;0.000;2023-05-13T13:28:00;3.33;;;2.77;;
28958;SDS011;16066;0.000;0.000;2023-05-13T13:30:26;5.63;;;3.10;;
28958;SDS011;16066;0.000;0.000;2023-05-13T13:32:51;3.03;;;2.73;;
28958;SDS011;16066;0.000;0.000;2023-05-13T13:35:17;7.10;;;2.97;;
28958;SDS011;16066;0.000;0.000;2023-05-13T13:37:42;5.60;;;3.20;;
28958;SDS011;16066;0.000;0.000;2023-05-13T13:40:08;4.50;;;3.20;;
28958;SDS011;16066;0.000;0.000;2023-05-13T13:42:34;3.50;;;2.57;;
28958;SDS011;16066;0.000;0.000;2023-05-13T13:44:59;3.60;;;2.63;;
28958;SDS011;16066;0.000;0.000;2023-05-13T13:47:27;3.57;;;2.80;;
28958;SDS011;16066;0.000;0.000;2023-05-13T13:49:52;3.10;;;2.70;;
28958;SDS011;16066;0.000;0.000;2023-05-13T13:52:18;6.10;;;2.50;;
28958;SDS011;16066;0.000;0.000;2023-05-13T13:54:44;2.70;;;2.27;;
28958;SDS011;16066;0.000;0.000;2023-05-13T13:57:09;6.23;;;2.90;;
28958;SDS011;16066;0.000;0.000;2023-05-13T13:59:35;3.37;;;2.47;;
28958;SDS011;16066;0.000;0.000;2023-05-13T14:02:00;3.97;;;2.90;;
28958;SDS011;16066;0.000;0.000;2023-05-13T14:04:26;4.20;;;2.70;;
28958;SDS011;16066;0.000;0.000;2023-05-13T14:06:54;3.20;;;2.33;;
28958;SDS011;16066;0.000;0.000;2023-05-13T14:09:20;4.57;;;2.60;;
28958;SDS011;16066;0.000;0.000;2023-05-13T14:11:45;9.30;;;2.57;;
28958;SDS011;16066;0.000;0.000;2023-05-13T14:14:11;3.97;;;2.50;;
28958;SDS011;16066;0.000;0.000;2023-05-13T14:16:36;3.17;;;2.70;;
28958;SDS011;16066;0.000;0.000;2023-05-13T14:19:02;5.90;;;2.97;;
28958;SDS011;16066;0.000;0.000;2023-05-13T14:21:27;5.60;;;2.63;;
28958;SDS011;16066;0.000;0.000;2023-05-13T14:23:53;4.83;;;2.70;;
28958;SDS011;16066;0.000;0.000;2023-05-13T14:26:18;3.27;;;2.50;;
28958;SDS011;16066;0.000;0.000;2023-05-13T14:28:45;3.23;;;2.40;;
28958;SDS011;16066;0.000;0.000;2023-05-13T14:31:10;4.00;;;2.90;;
28958;SDS011;16066;0.000;0.000;2023-05-13T14:33:36;3.87;;;2.40;;
28958;SDS011;16066;0.000;0.000;2023-05-13T14:36:02;5.50;;;2.50;;
28958;SDS011;16066;0.000;0.000;2023-05-13T14:38:27;4.20;;;2.77;;
28958;SDS011;16066;0.000;0.000;2023-05-13T14:40:53;4.23;;;3.10;;
28958;SDS011;16066;0.000;0.000;2023-05-13T14:43:20;4.73;;;2.70;;
28958;SDS011;16066;0.000;0.000;2023-05-13T14:45:46;7.80;;;2.70;;
28958;SDS011;16066;0.000;0.000;2023-05-13T14:48:12;7.03;;;2.40;;
28958;SDS011;16066;0.000;0.000;2023-05-13T14:50:38;3.30;;;3.00;;
28958;SDS011;16066;0.000;0.000;2023-05-13T14:53:04;4.70;;;2.60;;
28958;SDS011;16066;0.000;0.000;2023-05-13T14:55:29;3.70;;;2.47;;
28958;SDS011;16066;0.000;0.000;2023-05-13T14:57:55;3.17;;;2.30;;
28958;SDS011;16066;0.000;0.000;2023-05-13T15:00:20;3.03;;;2.60;;
28958;SDS011;16066;0.000;0.000;2023-05-13T15:02:46;7.33;;;3.17;;
28958;SDS011;16066;0.000;0.000;2023-05-13T15:05:11;3.60;;;2.70;;
28958;SDS011;16066;0.000;0.000;2023-05-13T15:07:37;2.73;;;2.53;;
28958;SDS011;16066;0.000;0.000;2023-05-13T15:10:03;2.60;;;2.40;;
28958;SDS011;16066;0.000;0.000;2023-05-13T15:12:28;4.87;;;2.90;;
28958;SDS011;16066;0.000;0.000;2023-05-13T15:14:54;7.40;;;3.50;;
28958;SDS011;16066;0.000;0.000;2023-05-13T15:17:21;3.30;;;2.50;;
28958;SDS011;16066;0.000;0.000;2023-05-13T15:19:46;4.30;;;3.23;;
28958;SDS011;16066;0.000;0.000;2023-05-13T15:22:12;4.43;;;2.60;;
28958;SDS011;16066;0.000;0.000;2023-05-13T15:24:37;3.57;;;3.27;;
28958;SDS011;16066;0.000;0.000;2023-05-13T15:27:06;3.77;;;3.37;;
28958;SDS011;16066;0.000;0.000;2023-05-13T15:29:31;4.03;;;3.30;;
28958;SDS011;16066;0.000;0.000;2023-05-13T15:31:57;7.20;;;3.90;;
28958;SDS011;16066;0.000;0.000;2023-05-13T15:34:23;7.23;;;3.20;;
28958;SDS011;16066;0.000;0.000;2023-05-13T15:36:48;7.30;;;3.30;;
28958;SDS011;16066;0.000;0.000;2023-05-13T15:39:14;6.23;;;4.70;;
28958;SDS011;16066;0.000;0.000;2023-05-13T15:41:40;4.97;;;3.90;;
28958;SDS011;16066;0.000;0.000;2023-05-13T15:44:06;8.13;;;4.40;;
28958;SDS011;16066;0.000;0.000;2023-05-13T15:46:32;4.47;;;3.80;;
28958;SDS011;16066;0.000;0.000;2023-05-13T15:48:58;7.60;;;4.03;;
28958;SDS011;16066;0.000;0.000;2023-05-13T15:51:23;5.07;;;4.40;;
28958;SDS011;16066;0.000;0.000;2023-05-13T15:53:49;6.00;;;4.40;;
28958;SDS011;16066;0.000;0.000;2023-05-13T15:56:16;7.30;;;3.60;;
28958;SDS011;16066;0.000;0.000;2023-05-13T15:58:42;8.97;;;4.10;;
28958;SDS011;16066;0.000;0.000;2023-05-13T16:01:08;11.53;;;4.40;;
28958;SDS011;16066;0.000;0.000;2023-05-13T16:03:33;4.77;;;3.97;;
28958;SDS011;16066;0.000;0.000;2023-05-13T16:05:59;9.27;;;5.17;;
28958;SDS011;16066;0.000;0.000;2023-05-13T16:08:25;9.40;;;6.13;;
28958;SDS011;16066;0.000;0.000;2023-05-13T16:10:51;11.80;;;7.50;;
28958;SDS011;16066;0.000;0.000;2023-05-13T16:13:16;9.30;;;6.33;;
28958;SDS011;16066;0.000;0.000;2023-05-13T16:15:42;9.20;;;5.40;;
28958;SDS011;16066;0.000;0.000;2023-05-13T16:18:07;11.70;;;5.63;;
28958;SDS011;16066;0.000;0.000;2023-05-13T16:20:33;8.40;;;5.30;;
28958;SDS011;16066;0.000;0.000;2023-05-13T16:22:58;7.77;;;5.00;;
28958;SDS011;16066;0.000;0.000;2023-05-13T16:25:24;9.10;;;4.50;;
28958;SDS011;16066;0.000;0.000;2023-05-13T16:27:50;6.57;;;4.77;;
28958;SDS011;16066;0.000;0.000;2023-05-13T16:30:16;5.93;;;4.60;;
28958;SDS011;16066;0.000;0.000;2023-05-13T16:32:41;7.30;;;4.50;;
28958;SDS011;16066;0.000;0.000;2023-05-13T16:35:07;9.13;;;5.50;;
28958;SDS011;16066;0.000;0.000;2023-05-13T16:37:35;5.93;;;3.93;;
28958;SDS011;16066;0.000;0.000;2023-05-13T16:40:01;11.30;;;4.87;;
28958;SDS011;16066;0.000;0.000;2023-05-13T16:42:27;6.40;;;4.73;;
28958;SDS011;16066;0.000;0.000;2023-05-13T16:44:52;6.83;;;4.80;;
28958;SDS011;16066;0.000;0.000;2023-05-13T16:47:18;7.33;;;4.37;;
28958;SDS011;16066;0.000;0.000;2023-05-13T16:49:43;5.73;;;4.50;;
28958;SDS011;16066;0.000;0.000;2023-05-13T16:52:09;5.40;;;3.73;;
28958;SDS011;16066;0.000;0.000;2023-05-13T16:54:35;6.73;;;4.33;;
28958;SDS011;16066;0.000;0.000;2023-05-13T16:57:00;4.73;;;3.70;;
28958;SDS011;16066;0.000;0.000;2023-05-13T16:59:26;6.90;;;3.93;;
28958;SDS011;16066;0.000;0.000;2023-05-13T17:01:52;5.43;;;4.40;;
28958;SDS011;16066;0.000;0.000;2023-05-13T17:04:18;8.27;;;4.20;;
28958;SDS011;16066;0.000;0.000;2023-05-13T17:06:44;5.07;;;3.80;;
28958;SDS011;16066;0.000;0.000;2023-05-13T17:09:10;8.00;;;3.80;;
28958;SDS011;16066;0.000;0.000;2023-05-13T17:11:36;7.80;;;3.87;;
28958;SDS011;16066;0.000;0.000;2023-05-13T17:14:02;8.70;;;4.47;;
28958;SDS011;16066;0.000;0.000;2023-05-13T17:16:28;5.30;;;3.53;;
28958;SDS011;16066;0.000;0.000;2023-05-13T17:18:54;4.27;;;3.87;;
28958;SDS011;16066;0.000;0.000;2023-05-13T17:21:20;4.30;;;3.70;;
28958;SDS011;16066;0.000;0.000;2023-05-13T17:23:45;6.40;;;3.30;;
28958;SDS011;16066;0.000;0.000;2023-05-13T17:26:10;3.77;;;3.37;;
28958;SDS011;16066;0.000;0.000;2023-05-13T17:28:36;5.40;;;3.47;;
28958;SDS011;16066;0.000;0.000;2023-05-13T17:31:04;6.27;;;3.60;;
28958;SDS011;16066;0.000;0.000;2023-05-13T17:33:31;4.07;;;3.53;;
28958;SDS011;16066;0.000;0.000;2023-05-13T17:35:57;16.63;;;3.53;;
28958;SDS011;16066;0.000;0.000;2023-05-13T17:38:23;6.10;;;3.27;;
28958;SDS011;16066;0.000;0.000;2023-05-13T17:40:49;7.77;;;3.40;;
28958;SDS011;16066;0.000;0.000;2023-05-13T17:43:15;3.60;;;3.03;;
28958;SDS011;16066;0.000;0.000;2023-05-13T17:45:41;3.40;;;3.10;;
28958;SDS011;16066;0.000;0.000;2023-05-13T17:48:06;8.90;;;3.73;;
28958;SDS011;16066;0.000;0.000;2023-05-13T17:50:32;7.90;;;6.00;;
28958;SDS011;16066;0.000;0.000;2023-05-13T17:52:58;5.40;;;4.90;;
28958;SDS011;16066;0.000;0.000;2023-05-13T17:55:24;5.80;;;4.77;;
28958;SDS011;16066;0.000;0.000;2023-05-13T17:57:50;5.50;;;5.00;;
28958;SDS011;16066;0.000;0.000;2023-05-13T18:00:15;9.67;;;6.37;;
28958;SDS011;16066;0.000;0.000;2023-05-13T18:02:41;8.43;;;5.80;;
28958;SDS011;16066;0.000;0.000;2023-05-13T18:05:07;7.13;;;5.90;;
28958;SDS011;16066;0.000;0.000;2023-05-13T18:07:33;6.47;;;5.57;;
28958;SDS011;16066;0.000;0.000;2023-05-13T18:09:59;6.43;;;5.13;;
28958;SDS011;16066;0.000;0.000;2023-05-13T18:12:24;6.13;;;4.53;;
28958;SDS011;16066;0.000;0.000;2023-05-13T18:14:50;8.90;;;5.00;;
28958;SDS011;16066;0.000;0.000;2023-05-13T18:17:16;6.57;;;4.90;;
28958;SDS011;16066;0.000;0.000;2023-05-13T18:19:41;6.33;;;5.00;;
28958;SDS011;16066;0.000;0.000;2023-05-13T18:22:07;6.23;;;5.13;;
28958;SDS011;16066;0.000;0.000;2023-05-13T18:24:33;7.07;;;5.27;;
28958;SDS011;16066;0.000;0.000;2023-05-13T18:26:59;6.23;;;4.70;;
28958;SDS011;16066;0.000;0.000;2023-05-13T18:29:24;6.80;;;5.23;;
28958;SDS011;16066;0.000;0.000;2023-05-13T18:31:50;6.13;;;5.00;;
28958;SDS011;16066;0.000;0.000;2023-05-13T18:34:15;9.63;;;4.90;;
28958;SDS011;16066;0.000;0.000;2023-05-13T18:36:41;7.07;;;5.90;;
28958;SDS011;16066;0.000;0.000;2023-05-13T18:39:07;7.27;;;5.60;;
28958;SDS011;16066;0.000;0.000;2023-05-13T18:41:34;8.70;;;6.17;;
28958;SDS011;16066;0.000;0.000;2023-05-13T18:44:00;11.23;;;4.77;;
28958;SDS011;16066;0.000;0.000;2023-05-13T18:46:25;7.27;;;4.80;;
28958;SDS011;16066;0.000;0.000;2023-05-13T18:48:51;6.60;;;5.30;;
28958;SDS011;16066;0.000;0.000;2023-05-13T18:51:16;8.73;;;5.20;;
28958;SDS011;16066;0.000;0.000;2023-05-13T18:53:42;15.80;;;6.47;;
28958;SDS011;16066;0.000;0.000;2023-05-13T18:56:09;7.43;;;5.47;;
28958;SDS011;16066;0.000;0.000;2023-05-13T18:58:34;16.80;;;7.57;;
28958;SDS011;16066;0.000;0.000;2023-05-13T19:01:00;10.20;;;6.63;;
28958;SDS011;16066;0.000;0.000;2023-05-13T19:03:26;9.40;;;5.93;;
28958;SDS011;16066;0.000;0.000;2023-05-13T19:05:51;16.13;;;9.10;;
28958;SDS011;16066;0.000;0.000;2023-05-13T19:08:17;8.83;;;6.53;;
28958;SDS011;16066;0.000;0.000;2023-05-13T19:10:42;8.93;;;6.90;;
28958;SDS011;16066;0.000;0.000;2023-05-13T19:13:08;9.13;;;6.80;;
28958;SDS011;16066;0.000;0.000;2023-05-13T19:15:33;9.53;;;6.40;;
28958;SDS011;16066;0.000;0.000;2023-05-13T19:17:59;9.33;;;5.83;;
28958;SDS011;16066;0.000;0.000;2023-05-13T19:20:25;8.10;;;6.53;;
28958;SDS011;16066;0.000;0.000;2023-05-13T19:22:51;8.00;;;6.10;;
28958;SDS011;16066;0.000;0.000;2023-05-13T19:25:16;9.77;;;6.60;;
28958;SDS011;16066;0.000;0.000;2023-05-13T19:27:42;12.60;;;6.90;;
28958;SDS011;16066;0.000;0.000;2023-05-13T19:30:08;9.23;;;6.90;;
28958;SDS011;16066;0.000;0.000;2023-05-13T19:32:34;16.60;;;10.93;;
28958;SDS011;16066;0.000;0.000;2023-05-13T19:35:00;10.97;;;8.53;;
28958;SDS011;16066;0.000;0.000;2023-05-13T19:37:27;10.40;;;7.63;;
28958;SDS011;16066;0.000;0.000;2023-05-13T19:39:54;18.83;;;11.17;;
28958;SDS011;16066;0.000;0.000;2023-05-13T19:42:20;14.87;;;10.43;;
28958;SDS011;16066;0.000;0.000;2023-05-13T19:44:45;13.47;;;8.33;;
28958;SDS011;16066;0.000;0.000;2023-05-13T19:47:11;24.43;;;12.27;;
28958;SDS011;16066;0.000;0.000;2023-05-13T19:49:37;12.13;;;8.30;;
28958;SDS011;16066;0.000;0.000;2023-05-13T19:52:02;16.03;;;9.10;;
28958;SDS011;16066;0.000;0.000;2023-05-13T19:54:28;10.73;;;8.23;;
28958;SDS011;16066;0.000;0.000;2023-05-13T19:56:53;16.20;;;10.93;;
28958;SDS011;16066;0.000;0.000;2023-05-13T19:59:20;12.87;;;8.90;;
28958;SDS011;16066;0.000;0.000;2023-05-13T20:01:45;15.30;;;9.03;;
28958;SDS011;16066;0.000;0.000;2023-05-13T20:04:11;22.37;;;13.00;;
28958;SDS011;16066;0.000;0.000;2023-05-13T20:06:36;26.97;;;15.80;;
28958;SDS011;16066;0.000;0.000;2023-05-13T20:09:02;33.63;;;19.97;;
28958;SDS011;16066;0.000;0.000;2023-05-13T20:11:27;29.03;;;18.53;;
28958;SDS011;16066;0.000;0.000;2023-05-13T20:13:53;24.93;;;15.40;;
28958;SDS011;16066;0.000;0.000;2023-05-13T20:16:19;19.20;;;13.23;;
28958;SDS011;16066;0.000;0.000;2023-05-13T20:18:46;23.77;;;13.27;;
28958;SDS011;16066;0.000;0.000;2023-05-13T20:21:12;18.90;;;10.73;;
28958;SDS011;16066;0.000;0.000;2023-05-13T20:23:38;20.27;;;12.37;;
28958;SDS011;16066;0.000;0.000;2023-05-13T20:26:05;23.63;;;14.30;;
28958;SDS011;16066;0.000;0.000;2023-05-13T20:28:31;16.93;;;10.77;;
28958;SDS011;16066;0.000;0.000;2023-05-13T20:30:56;13.50;;;9.00;;
28958;SDS011;16066;0.000;0.000;2023-05-13T20:33:24;12.10;;;7.90;;
28958;SDS011;16066;0.000;0.000;2023-05-13T20:35:50;10.63;;;7.80;;
28958;SDS011;16066;0.000;0.000;2023-05-13T20:38:15;12.20;;;8.23;;
28958;SDS011;16066;0.000;0.000;2023-05-13T20:40:41;15.27;;;10.33;;
28958;SDS011;16066;0.000;0.000;2023-05-13T20:43:07;14.53;;;9.80;;
28958;SDS011;16066;0.000;0.000;2023-05-13T20:45:32;17.20;;;11.63;;
28958;SDS011;16066;0.000;0.000;2023-05-13T20:48:00;14.77;;;9.23;;
28958;SDS011;16066;0.000;0.000;2023-05-13T20:50:26;12.53;;;8.20;;
28958;SDS011;16066;0.000;0.000;2023-05-13T20:52:52;21.70;;;14.60;;
28958;SDS011;16066;0.000;0.000;2023-05-13T20:55:19;31.40;;;19.67;;
28958;SDS011;16066;0.000;0.000;2023-05-13T20:57:46;19.10;;;10.60;;